Endeavor — WDE2605 — position and weather

sailwx.info

Track history (hours):
 
Tides and Currents Weather Stations Pressure Air Temp Water Temp Dewpoint Dewpoint Depression Visibility Wind Speed Wind Dir Waves Ship Positions

Endeavor

Owner: Daniel J. Fisheries, Warrenton, OR. More information available from US FCC via Universal Licensing System and Coast Guard Vessel Documentation Center.

Last reported at 2018-Jul-19 00:27 UTC. Time now 2018-Jul-20 00:48 UTC.
Position N 46°55' W 124°11'.

Type: Fishing. MMSI: 367327250.

Date/timePositionNaut miles runAvg speedWind from/ knotsBaromVisibWave heightAir tempDewpointWater temp
2018-Jul-19 00:27N 46°55' W 124°11'4 9.0
2018-Jul-19 00:00N 46°56' W 124°17'4 8.4
2018-Jul-18 23:30N 46°56' W 124°23'4 7.9
2018-Jul-18 23:00N 46°57' W 124°28'5 7.9
2018-Jul-18 22:20N 46°58' W 124°36'3 7.8
2018-Jul-18 22:00N 46°58' W 124°40'4 7.9
2018-Jul-18 21:31N 46°59' W 124°46'2 4.0
2018-Jul-18 20:58N 46°60' W 124°48'36 0.9
2018-Jul-17 06:32N 47°36' W 124°55'1 0.7
2018-Jul-17 05:42N 47°36' W 124°56'0 0.6
2018-Jul-17 05:25N 47°36' W 124°56'3 6.9
2018-Jul-17 04:59N 47°34' W 124°53'3 6.9
2018-Jul-17 04:30N 47°31' W 124°50'1 1.1
2018-Jul-17 03:57N 47°31' W 124°51'3 0.2
2018-Jul-16 11:12N 47°33' W 124°53'0 0.3
2018-Jul-16 11:00N 47°33' W 124°53'0 0.4
2018-Jul-16 10:27N 47°34' W 124°54'3 0.7
2018-Jul-16 06:21N 47°36' W 124°55'0 0.8
2018-Jul-16 06:01N 47°37' W 124°56'0 0.6
2018-Jul-16 05:30N 47°36' W 124°56'3 5.4
2018-Jul-16 04:57N 47°34' W 124°53'1 1.1
2018-Jul-16 04:30N 47°34' W 124°54'1 1.2
2018-Jul-16 04:00N 47°35' W 124°55'1 1.8
2018-Jul-16 03:30N 47°35' W 124°55'1 1.9
2018-Jul-16 02:56N 47°36' W 124°56'0 0.4
2018-Jul-16 02:14N 47°37' W 124°56'0 1.7
2018-Jul-16 02:00N 47°36' W 124°56'1 1.7
2018-Jul-16 01:22N 47°35' W 124°55'1 1.8
2018-Jul-16 01:00N 47°35' W 124°55'1 1.7
2018-Jul-16 00:31N 47°34' W 124°54'1 1.7
2018-Jul-16 00:00N 47°33' W 124°53'1 2.1
2018-Jul-15 23:30N 47°32' W 124°53'0 0.7
2018-Jul-15 23:00N 47°32' W 124°53'1 2.0
2018-Jul-15 22:26N 47°33' W 124°54'1 1.9
2018-Jul-15 21:54N 47°34' W 124°54'2 1.8
2018-Jul-15 20:58N 47°36' W 124°55'1 1.9
2018-Jul-15 20:29N 47°37' W 124°56'1 1.8
2018-Jul-15 19:57N 47°38' W 124°57'0 1.0
2018-Jul-15 19:31N 47°37' W 124°57'5 1.0
2018-Jul-15 14:46N 47°33' W 124°54'1 1.7
2018-Jul-15 14:25N 47°33' W 124°54'0 0.4
2018-Jul-15 13:54N 47°34' W 124°54'1 1.9
2018-Jul-15 13:29N 47°33' W 124°54'17 5.1
2018-Jul-15 10:09N 47°18' W 124°42'8 7.1
2018-Jul-15 09:01N 47°10' W 124°38'0 7.0
2018-Jul-15 09:00N 47°10' W 124°38'4 6.9
2018-Jul-15 08:22N 47°06' W 124°36'3 7.0
2018-Jul-15 07:59N 47°04' W 124°34'4 7.3
2018-Jul-15 07:28N 46°60' W 124°32'3 7.2
2018-Jul-15 06:59N 46°57' W 124°30'3 7.1
2018-Jul-15 06:30N 46°54' W 124°29'4 7.2
2018-Jul-15 06:00N 46°50' W 124°27'4 7.3
2018-Jul-15 05:30N 46°47' W 124°25'4 7.4
2018-Jul-15 05:01N 46°43' W 124°23'3 6.8
2018-Jul-15 04:30N 46°40' W 124°21'4 7.2
2018-Jul-15 04:01N 46°37' W 124°19'4 7.1
2018-Jul-15 03:30N 46°33' W 124°18'4 7.0
2018-Jul-15 03:00N 46°30' W 124°16'4 7.4
2018-Jul-15 02:31N 46°27' W 124°15'4 6.9
2018-Jul-15 02:00N 46°23' W 124°13'4 7.4
2018-Jul-15 01:31N 46°20' W 124°11'4 7.1
2018-Jul-15 01:00N 46°17' W 124°09'4 8.3
2018-Jul-15 00:31N 46°16' W 124°03'5 9.4
2018-Jul-15 00:00N 46°13' W 123°57'3 4.2
2018-Jul-14 23:13N 46°10' W 123°55'0 0.0
2018-Jul-14 23:01N 46°10' W 123°55'0 0.0
2018-Jul-14 22:31N 46°10' W 123°55'0 0.0
2018-Jul-14 22:00N 46°10' W 123°55'0 0.0
2018-Jul-14 21:31N 46°10' W 123°55'0 0.1
2018-Jul-14 21:00N 46°10' W 123°55'0 0.2
2018-Jul-14 20:31N 46°10' W 123°55'0 0.0
2018-Jul-14 20:01N 46°10' W 123°55'0 0.0
2018-Jul-14 19:30N 46°10' W 123°55'0 0.0
2018-Jul-14 19:01N 46°10' W 123°55'0 0.0
2018-Jul-14 18:29N 46°10' W 123°55'0 0.0
2018-Jul-14 18:01N 46°10' W 123°55'0 0.1
2018-Jul-14 17:31N 46°10' W 123°55'0 0.0
2018-Jul-14 17:01N 46°10' W 123°55'0 0.0
2018-Jul-14 16:30N 46°10' W 123°55'0 0.1
2018-Jul-14 16:01N 46°10' W 123°55'0 0.0
2018-Jul-14 15:31N 46°10' W 123°55'0 0.0
2018-Jul-14 15:00N 46°10' W 123°55'0 0.0
2018-Jul-14 14:31N 46°10' W 123°55'0 0.0
2018-Jul-14 13:29N 46°10' W 123°55'0 0.0
2018-Jul-14 13:00N 46°10' W 123°55'0 0.0
2018-Jul-14 12:30N 46°10' W 123°55'0 0.0
2018-Jul-14 12:01N 46°10' W 123°55'0 0.0
2018-Jul-14 11:31N 46°10' W 123°55'0 0.0
2018-Jul-14 11:01N 46°10' W 123°55'0 0.0
2018-Jul-14 10:31N 46°10' W 123°55'0 0.0
2018-Jul-14 10:00N 46°10' W 123°55'0 0.0
2018-Jul-14 09:14N 46°10' W 123°55'0 0.0
2018-Jul-14 09:01N 46°10' W 123°55'0 0.0
2018-Jul-14 08:31N 46°10' W 123°55'0 0.0
2018-Jul-14 08:00N 46°10' W 123°55'0 0.0
2018-Jul-14 07:31N 46°10' W 123°55'0 0.0
2018-Jul-14 06:59N 46°10' W 123°55'0 0.0
2018-Jul-14 06:30N 46°10' W 123°55'0 0.0
2018-Jul-14 06:00N 46°10' W 123°55'0 0.0
2018-Jul-14 05:30N 46°10' W 123°55'0 0.0
2018-Jul-14 05:01N 46°10' W 123°55'0 0.0
2018-Jul-14 04:30N 46°10' W 123°55'0 0.0
2018-Jul-14 04:01N 46°10' W 123°55'0 0.0
2018-Jul-14 03:27N 46°10' W 123°55'0 0.0
2018-Jul-14 03:00N 46°10' W 123°55'0 0.0
2018-Jul-14 02:31N 46°10' W 123°55'0 0.0
2018-Jul-14 02:00N 46°10' W 123°55'0 0.0
2018-Jul-14 01:31N 46°10' W 123°55'0 0.0
2018-Jul-14 01:01N 46°10' W 123°55'0 0.0
2018-Jul-14 00:30N 46°10' W 123°55'0 0.0
2018-Jul-13 23:50N 46°10' W 123°55'0 0.0
2018-Jul-13 23:30N 46°10' W 123°55'0 0.0
2018-Jul-13 23:00N 46°10' W 123°55'0 0.0
2018-Jul-13 22:31N 46°10' W 123°55'1 1.1
2018-Jul-13 22:01N 46°11' W 123°55'2 4.8
2018-Jul-13 21:31N 46°10' W 123°51'1 2.3
2018-Jul-13 21:00N 46°09' W 123°52'0 0.0
2018-Jul-13 20:16N 46°09' W 123°52'0 0.0
2018-Jul-13 20:00N 46°09' W 123°52'0 0.0
2018-Jul-13 19:30N 46°09' W 123°52'0 0.0
2018-Jul-13 19:01N 46°09' W 123°52'0 0.0
2018-Jul-13 18:31N 46°09' W 123°52'0 0.0
2018-Jul-13 18:00N 46°09' W 123°52'0 0.0
2018-Jul-13 17:31N 46°09' W 123°52'0 0.0
2018-Jul-13 17:01N 46°09' W 123°52'0 0.0
2018-Jul-13 16:31N 46°09' W 123°52'0 0.0
2018-Jul-13 16:00N 46°09' W 123°52'0 0.0
2018-Jul-13 15:31N 46°09' W 123°52'0 0.0
2018-Jul-13 15:01N 46°09' W 123°52'0 0.0
2018-Jul-13 14:00N 46°09' W 123°52'0 0.0
2018-Jul-13 13:31N 46°09' W 123°52'0 0.0
2018-Jul-13 13:00N 46°09' W 123°52'0 0.0
2018-Jul-13 12:30N 46°09' W 123°52'0 0.0
2018-Jul-13 12:00N 46°09' W 123°52'0 0.0
2018-Jul-13 11:31N 46°09' W 123°52'0 0.0
2018-Jul-13 11:00N 46°09' W 123°52'0 0.0
2018-Jul-13 10:31N 46°09' W 123°52'0 0.0
2018-Jul-13 10:01N 46°09' W 123°52'0 0.0
2018-Jul-13 09:30N 46°09' W 123°52'0 0.0
2018-Jul-13 09:01N 46°09' W 123°52'0 0.0
2018-Jul-13 08:31N 46°09' W 123°52'0 0.0
2018-Jul-13 08:00N 46°09' W 123°52'0 0.0
2018-Jul-13 07:31N 46°09' W 123°52'0 0.0
2018-Jul-13 06:59N 46°09' W 123°52'0 0.0
2018-Jul-13 06:30N 46°09' W 123°52'0 0.0
2018-Jul-13 06:00N 46°09' W 123°52'0 0.0
2018-Jul-13 05:31N 46°09' W 123°52'0 0.0
2018-Jul-13 05:01N 46°09' W 123°52'0 0.0
2018-Jul-13 04:30N 46°09' W 123°52'0 0.0
2018-Jul-13 04:00N 46°09' W 123°52'0 0.0
2018-Jul-13 03:31N 46°09' W 123°52'0 0.0
2018-Jul-13 03:00N 46°09' W 123°52'0 0.0
2018-Jul-13 02:30N 46°09' W 123°52'0 0.0
2018-Jul-13 02:00N 46°09' W 123°52'0 0.0
2018-Jul-13 01:30N 46°09' W 123°52'0 0.0
2018-Jul-13 01:01N 46°09' W 123°52'0 0.0
2018-Jul-13 00:31N 46°09' W 123°52'0 0.0
2018-Jul-13 00:00N 46°09' W 123°52'0 0.0
2018-Jul-12 23:30N 46°09' W 123°52'0 0.0
2018-Jul-12 23:00N 46°09' W 123°52'0 0.0
2018-Jul-12 22:31N 46°09' W 123°52'0 0.0
2018-Jul-12 22:01N 46°09' W 123°52'0 0.0
2018-Jul-12 21:31N 46°09' W 123°52'0 0.0
2018-Jul-12 21:00N 46°09' W 123°52'0 0.0
2018-Jul-12 20:30N 46°09' W 123°52'0 0.0
2018-Jul-12 19:38N 46°09' W 123°52'0 0.0
2018-Jul-12 19:31N 46°09' W 123°52'0 0.0
2018-Jul-12 19:00N 46°09' W 123°52'0 0.0
2018-Jul-12 18:31N 46°09' W 123°52'0 0.0
2018-Jul-12 18:01N 46°09' W 123°52'0 0.0
2018-Jul-12 17:22N 46°09' W 123°52'0 0.0
2018-Jul-12 17:01N 46°09' W 123°52'0 0.0
2018-Jul-12 16:31N 46°09' W 123°52'0 0.1
2018-Jul-12 16:00N 46°09' W 123°52'0 0.1
2018-Jul-12 15:30N 46°09' W 123°52'0 0.1
2018-Jul-12 15:01N 46°09' W 123°52'0 0.1
2018-Jul-12 14:31N 46°09' W 123°52'0 0.0
2018-Jul-12 14:01N 46°09' W 123°52'0 0.0
2018-Jul-12 13:31N 46°09' W 123°52'0 0.0
2018-Jul-12 13:00N 46°09' W 123°52'0 0.0
2018-Jul-12 12:18N 46°09' W 123°52'0 0.0
2018-Jul-12 12:00N 46°09' W 123°52'0 0.0
2018-Jul-12 11:30N 46°09' W 123°52'0 0.0
2018-Jul-12 10:35N 46°09' W 123°52'0 0.0
2018-Jul-12 10:30N 46°09' W 123°52'0 0.0
2018-Jul-12 09:48N 46°09' W 123°52'0 0.0
2018-Jul-12 09:30N 46°09' W 123°52'0 0.0
2018-Jul-12 08:54N 46°09' W 123°52'0 0.0
2018-Jul-12 08:31N 46°09' W 123°52'0 0.0
2018-Jul-12 07:58N 46°09' W 123°52'0 0.0
2018-Jul-12 07:30N 46°09' W 123°52'0 0.0
2018-Jul-12 06:59N 46°09' W 123°52'0 0.0
2018-Jul-12 06:31N 46°09' W 123°52'0 0.0
2018-Jul-12 06:01N 46°09' W 123°52'0 0.0
2018-Jul-12 05:30N 46°09' W 123°52'0 0.0
2018-Jul-12 05:00N 46°09' W 123°52'0 0.0
2018-Jul-12 04:24N 46°09' W 123°52'0 0.0
2018-Jul-12 04:00N 46°09' W 123°52'0 0.0
2018-Jul-12 03:30N 46°09' W 123°52'0 0.0
2018-Jul-12 02:48N 46°09' W 123°52'0 0.0
2018-Jul-12 02:30N 46°09' W 123°52'0 0.0
2018-Jul-12 02:00N 46°09' W 123°52'0 0.0
2018-Jul-12 01:30N 46°09' W 123°52'0 0.0
2018-Jul-12 01:00N 46°09' W 123°52'0 0.0
2018-Jul-12 00:30N 46°09' W 123°52'0 0.0
2018-Jul-12 00:00N 46°09' W 123°52'0 0.0
2018-Jul-11 23:30N 46°09' W 123°52'0 0.0
2018-Jul-11 23:01N 46°09' W 123°52'0 0.0
2018-Jul-11 22:31N 46°09' W 123°52'0 0.0
2018-Jul-11 22:01N 46°09' W 123°52'0 0.0
2018-Jul-11 21:30N 46°09' W 123°52'0 0.0
2018-Jul-11 21:00N 46°09' W 123°52'0 0.0
2018-Jul-11 20:30N 46°09' W 123°52'0 0.0
2018-Jul-11 20:00N 46°09' W 123°52'0 0.0
2018-Jul-11 19:30N 46°09' W 123°52'0 0.0
2018-Jul-11 19:00N 46°09' W 123°52'0 0.0
2018-Jul-11 18:30N 46°09' W 123°52'0 0.0
2018-Jul-11 18:00N 46°09' W 123°52'0 0.0
2018-Jul-11 17:30N 46°09' W 123°52'0 0.0
2018-Jul-11 17:00N 46°09' W 123°52'0 0.0
2018-Jul-11 16:30N 46°09' W 123°52'0 0.0
2018-Jul-11 16:00N 46°09' W 123°52'0 0.0
2018-Jul-11 15:30N 46°09' W 123°52'0 0.0
2018-Jul-11 15:00N 46°09' W 123°52'0 0.0
2018-Jul-11 14:30N 46°09' W 123°52'0 0.0
2018-Jul-11 14:00N 46°09' W 123°52'0 0.0
2018-Jul-11 13:30N 46°09' W 123°52'0 0.0
2018-Jul-11 13:00N 46°09' W 123°52'0 0.0
2018-Jul-11 12:30N 46°09' W 123°52'0 0.0
2018-Jul-11 12:00N 46°09' W 123°52'0 0.0
2018-Jul-11 11:30N 46°09' W 123°52'0 0.0
2018-Jul-11 11:01N 46°09' W 123°52'0 0.0
2018-Jul-11 10:19N 46°09' W 123°52'0 0.0
2018-Jul-11 10:00N 46°09' W 123°52'0 0.0
2018-Jul-11 09:30N 46°09' W 123°52'0 0.0
2018-Jul-11 09:00N 46°09' W 123°52'0 0.0
2018-Jul-11 08:31N 46°09' W 123°52'0 0.1
2018-Jul-11 08:00N 46°09' W 123°52'0 0.1
2018-Jul-11 07:30N 46°09' W 123°52'0 0.0
2018-Jul-11 06:59N 46°09' W 123°52'0 0.0
2018-Jul-11 06:30N 46°09' W 123°52'0 0.0
2018-Jul-11 06:00N 46°09' W 123°52'0 0.0
2018-Jul-11 05:30N 46°09' W 123°52'0 0.0
2018-Jul-11 05:01N 46°09' W 123°52'0 0.0
2018-Jul-11 04:30N 46°09' W 123°52'0 0.0
2018-Jul-11 04:01N 46°09' W 123°52'0 0.0
2018-Jul-11 03:30N 46°09' W 123°52'0 0.0
2018-Jul-11 03:00N 46°09' W 123°52'0 0.0
2018-Jul-11 02:31N 46°09' W 123°52'0 0.0
2018-Jul-11 02:01N 46°09' W 123°52'0 0.0
2018-Jul-11 01:30N 46°09' W 123°52'0 0.0
2018-Jul-11 01:00N 46°09' W 123°52'0 0.0
2018-Jul-11 00:30N 46°09' W 123°52'0 0.0
2018-Jul-11 00:00N 46°09' W 123°52'0 0.0
2018-Jul-10 23:31N 46°09' W 123°52'0 0.0
2018-Jul-10 23:00N 46°09' W 123°52'0 0.0
2018-Jul-10 22:30N 46°09' W 123°52'0 0.0
2018-Jul-10 22:00N 46°09' W 123°52'0 0.0
2018-Jul-10 21:30N 46°09' W 123°52'0 0.0
2018-Jul-10 21:00N 46°09' W 123°52'0 0.0
2018-Jul-10 20:30N 46°09' W 123°52'0 0.0
2018-Jul-10 20:00N 46°09' W 123°52'0 0.0
2018-Jul-10 19:31N 46°09' W 123°52'0 0.0
2018-Jul-10 19:00N 46°09' W 123°52'0 0.0
2018-Jul-10 18:31N 46°09' W 123°52'0 0.0
2018-Jul-10 18:00N 46°09' W 123°52'0 0.0
2018-Jul-10 17:31N 46°09' W 123°52'0 0.0
2018-Jul-10 17:01N 46°09' W 123°52'0 0.0
2018-Jul-10 16:12N 46°09' W 123°52'0 0.0
2018-Jul-10 16:01N 46°09' W 123°52'0 0.1
2018-Jul-10 15:30N 46°09' W 123°52'0 0.1
2018-Jul-10 15:00N 46°09' W 123°52'0 0.0
2018-Jul-10 14:30N 46°09' W 123°52'0 0.0
2018-Jul-10 14:00N 46°09' W 123°52'0 0.0
2018-Jul-10 13:30N 46°09' W 123°52'0 0.0
2018-Jul-10 13:00N 46°09' W 123°52'0 0.0
2018-Jul-10 12:31N 46°09' W 123°52'0 0.0
2018-Jul-10 12:01N 46°09' W 123°52'0 0.0
2018-Jul-10 11:31N 46°09' W 123°52'0 0.0
2018-Jul-10 11:01N 46°09' W 123°52'0 0.0
2018-Jul-10 10:31N 46°09' W 123°52'0 0.0
2018-Jul-10 10:01N 46°09' W 123°52'0 0.0
2018-Jul-10 09:26N 46°09' W 123°52'0 0.0
2018-Jul-10 09:00N 46°09' W 123°52'0 0.0
2018-Jul-10 08:30N 46°09' W 123°52'0 0.0
2018-Jul-10 07:41N 46°09' W 123°52'0 0.0
2018-Jul-10 07:31N 46°09' W 123°52'0 0.0
2018-Jul-10 06:59N 46°09' W 123°52'0 0.0
2018-Jul-10 06:30N 46°09' W 123°52'0 0.0
2018-Jul-10 06:01N 46°09' W 123°52'0 0.0
2018-Jul-10 05:31N 46°09' W 123°52'0 0.0
2018-Jul-10 05:01N 46°09' W 123°52'0 0.0
2018-Jul-10 04:15N 46°09' W 123°52'0 0.0
2018-Jul-10 04:00N 46°09' W 123°52'0 0.0
2018-Jul-10 03:30N 46°09' W 123°52'0 0.0
2018-Jul-10 03:00N 46°09' W 123°52'0 0.0
2018-Jul-10 02:30N 46°09' W 123°52'0 0.0
2018-Jul-10 02:00N 46°09' W 123°52'0 0.0
2018-Jul-10 01:31N 46°09' W 123°52'0 0.0
2018-Jul-10 01:00N 46°09' W 123°52'0 0.0
2018-Jul-10 00:30N 46°09' W 123°52'0 0.0
2018-Jul-10 00:00N 46°09' W 123°52'0 0.0
2018-Jul-09 23:30N 46°09' W 123°52'0 0.0
2018-Jul-09 23:01N 46°09' W 123°52'0 0.0
2018-Jul-09 22:30N 46°09' W 123°52'0 0.0
2018-Jul-09 22:00N 46°09' W 123°52'0 0.0
2018-Jul-09 21:08N 46°09' W 123°52'0 0.0
2018-Jul-09 21:00N 46°09' W 123°52'0 0.0
2018-Jul-09 20:30N 46°09' W 123°52'0 0.0
2018-Jul-09 20:00N 46°09' W 123°52'0 0.0
2018-Jul-09 19:30N 46°09' W 123°52'0 0.0
2018-Jul-09 19:00N 46°09' W 123°52'0 0.0
2018-Jul-09 18:31N 46°09' W 123°52'0 0.0
2018-Jul-09 18:01N 46°09' W 123°52'0 0.0
2018-Jul-09 17:30N 46°09' W 123°52'0 0.0
2018-Jul-09 17:00N 46°09' W 123°52'0 0.0
2018-Jul-09 16:30N 46°09' W 123°52'0 0.0
2018-Jul-09 16:00N 46°09' W 123°52'0 0.0
2018-Jul-09 15:30N 46°09' W 123°52'0 0.0
2018-Jul-09 15:00N 46°09' W 123°52'0 0.0
2018-Jul-09 14:30N 46°09' W 123°52'0 0.0
2018-Jul-09 14:00N 46°09' W 123°52'0 0.0
2018-Jul-09 13:30N 46°09' W 123°52'0 0.0
2018-Jul-09 13:00N 46°09' W 123°52'0 0.0
2018-Jul-09 12:30N 46°09' W 123°52'0 0.0
2018-Jul-09 12:00N 46°09' W 123°52'0 0.0
2018-Jul-09 11:31N 46°09' W 123°52'0 0.0
2018-Jul-09 11:00N 46°09' W 123°52'0 0.0
2018-Jul-09 10:30N 46°09' W 123°52'0 0.0
2018-Jul-09 10:00N 46°09' W 123°52'0 0.0
2018-Jul-09 09:30N 46°09' W 123°52'0 0.0
2018-Jul-09 09:00N 46°09' W 123°52'0 0.0
2018-Jul-09 08:31N 46°09' W 123°52'0 0.0
2018-Jul-09 08:00N 46°09' W 123°52'0 0.0
2018-Jul-09 07:30N 46°09' W 123°52'0 0.0
2018-Jul-09 06:59N 46°09' W 123°52'0 0.0
2018-Jul-09 06:30N 46°09' W 123°52'0 0.0
2018-Jul-09 06:00N 46°09' W 123°52'0 0.0
2018-Jul-09 05:25N 46°09' W 123°52'0 0.0
2018-Jul-09 05:00N 46°09' W 123°52'0 0.0
2018-Jul-09 04:20N 46°09' W 123°52'0 0.0
2018-Jul-09 04:00N 46°09' W 123°52'0 0.0
2018-Jul-09 03:31N 46°09' W 123°52'0 0.0
2018-Jul-09 02:54N 46°09' W 123°52'0 0.0
2018-Jul-09 02:30N 46°09' W 123°52'0 0.0
2018-Jul-09 02:00N 46°09' W 123°52'0 0.0
2018-Jul-09 01:30N 46°09' W 123°52'0 0.0
2018-Jul-09 01:00N 46°09' W 123°52'0 0.0
2018-Jul-09 00:30N 46°09' W 123°52'  
Track history (hours):
 
Tides and Currents Weather Stations Pressure Air Temp Water Temp Dewpoint Dewpoint Depression Visibility Wind Speed Wind Dir Waves Ship Positions

Endeavor

Owner: Daniel J. Fisheries, Warrenton, OR. More information available from US FCC via Universal Licensing System and Coast Guard Vessel Documentation Center.

Last reported at 2018-Jul-19 00:27 UTC. Time now 2018-Jul-20 00:48 UTC.
Position N 46°55' W 124°11'.

Type: Fishing. MMSI: 367327250.

Date/timePositionNaut miles runAvg speedWind from/ knotsBaromVisibWave heightAir tempDewpointWater temp
2018-Jul-19 00:27N 46°55' W 124°11'4 9.0
2018-Jul-19 00:00N 46°56' W 124°17'4 8.4
2018-Jul-18 23:30N 46°56' W 124°23'4 7.9
2018-Jul-18 23:00N 46°57' W 124°28'5 7.9
2018-Jul-18 22:20N 46°58' W 124°36'3 7.8
2018-Jul-18 22:00N 46°58' W 124°40'4 7.9
2018-Jul-18 21:31N 46°59' W 124°46'2 4.0
2018-Jul-18 20:58N 46°60' W 124°48'36 0.9
2018-Jul-17 06:32N 47°36' W 124°55'1 0.7
2018-Jul-17 05:42N 47°36' W 124°56'0 0.6
2018-Jul-17 05:25N 47°36' W 124°56'3 6.9
2018-Jul-17 04:59N 47°34' W 124°53'3 6.9
2018-Jul-17 04:30N 47°31' W 124°50'1 1.1
2018-Jul-17 03:57N 47°31' W 124°51'3 0.2
2018-Jul-16 11:12N 47°33' W 124°53'0 0.3
2018-Jul-16 11:00N 47°33' W 124°53'0 0.4
2018-Jul-16 10:27N 47°34' W 124°54'3 0.7
2018-Jul-16 06:21N 47°36' W 124°55'0 0.8
2018-Jul-16 06:01N 47°37' W 124°56'0 0.6
2018-Jul-16 05:30N 47°36' W 124°56'3 5.4
2018-Jul-16 04:57N 47°34' W 124°53'1 1.1
2018-Jul-16 04:30N 47°34' W 124°54'1 1.2
2018-Jul-16 04:00N 47°35' W 124°55'1 1.8
2018-Jul-16 03:30N 47°35' W 124°55'1 1.9
2018-Jul-16 02:56N 47°36' W 124°56'0 0.4
2018-Jul-16 02:14N 47°37' W 124°56'0 1.7
2018-Jul-16 02:00N 47°36' W 124°56'1 1.7
2018-Jul-16 01:22N 47°35' W 124°55'1 1.8
2018-Jul-16 01:00N 47°35' W 124°55'1 1.7
2018-Jul-16 00:31N 47°34' W 124°54'1 1.7
2018-Jul-16 00:00N 47°33' W 124°53'1 2.1
2018-Jul-15 23:30N 47°32' W 124°53'0 0.7
2018-Jul-15 23:00N 47°32' W 124°53'1 2.0
2018-Jul-15 22:26N 47°33' W 124°54'1 1.9
2018-Jul-15 21:54N 47°34' W 124°54'2 1.8
2018-Jul-15 20:58N 47°36' W 124°55'1 1.9
2018-Jul-15 20:29N 47°37' W 124°56'1 1.8
2018-Jul-15 19:57N 47°38' W 124°57'0 1.0
2018-Jul-15 19:31N 47°37' W 124°57'5 1.0
2018-Jul-15 14:46N 47°33' W 124°54'1 1.7
2018-Jul-15 14:25N 47°33' W 124°54'0 0.4
2018-Jul-15 13:54N 47°34' W 124°54'1 1.9
2018-Jul-15 13:29N 47°33' W 124°54'17 5.1
2018-Jul-15 10:09N 47°18' W 124°42'8 7.1
2018-Jul-15 09:01N 47°10' W 124°38'0 7.0
2018-Jul-15 09:00N 47°10' W 124°38'4 6.9
2018-Jul-15 08:22N 47°06' W 124°36'3 7.0
2018-Jul-15 07:59N 47°04' W 124°34'4 7.3
2018-Jul-15 07:28N 46°60' W 124°32'3 7.2
2018-Jul-15 06:59N 46°57' W 124°30'3 7.1
2018-Jul-15 06:30N 46°54' W 124°29'4 7.2
2018-Jul-15 06:00N 46°50' W 124°27'4 7.3
2018-Jul-15 05:30N 46°47' W 124°25'4 7.4
2018-Jul-15 05:01N 46°43' W 124°23'3 6.8
2018-Jul-15 04:30N 46°40' W 124°21'4 7.2
2018-Jul-15 04:01N 46°37' W 124°19'4 7.1
2018-Jul-15 03:30N 46°33' W 124°18'4 7.0
2018-Jul-15 03:00N 46°30' W 124°16'4 7.4
2018-Jul-15 02:31N 46°27' W 124°15'4 6.9
2018-Jul-15 02:00N 46°23' W 124°13'4 7.4
2018-Jul-15 01:31N 46°20' W 124°11'4 7.1
2018-Jul-15 01:00N 46°17' W 124°09'4 8.3
2018-Jul-15 00:31N 46°16' W 124°03'5 9.4
2018-Jul-15 00:00N 46°13' W 123°57'3 4.2
2018-Jul-14 23:13N 46°10' W 123°55'0 0.0
2018-Jul-14 23:01N 46°10' W 123°55'0 0.0
2018-Jul-14 22:31N 46°10' W 123°55'0 0.0
2018-Jul-14 22:00N 46°10' W 123°55'0 0.0
2018-Jul-14 21:31N 46°10' W 123°55'0 0.1
2018-Jul-14 21:00N 46°10' W 123°55'0 0.2
2018-Jul-14 20:31N 46°10' W 123°55'0 0.0
2018-Jul-14 20:01N 46°10' W 123°55'0 0.0
2018-Jul-14 19:30N 46°10' W 123°55'0 0.0
2018-Jul-14 19:01N 46°10' W 123°55'0 0.0
2018-Jul-14 18:29N 46°10' W 123°55'0 0.0
2018-Jul-14 18:01N 46°10' W 123°55'0 0.1
2018-Jul-14 17:31N 46°10' W 123°55'0 0.0
2018-Jul-14 17:01N 46°10' W 123°55'0 0.0
2018-Jul-14 16:30N 46°10' W 123°55'0 0.1
2018-Jul-14 16:01N 46°10' W 123°55'0 0.0
2018-Jul-14 15:31N 46°10' W 123°55'0 0.0
2018-Jul-14 15:00N 46°10' W 123°55'0 0.0
2018-Jul-14 14:31N 46°10' W 123°55'0 0.0
2018-Jul-14 13:29N 46°10' W 123°55'0 0.0
2018-Jul-14 13:00N 46°10' W 123°55'0 0.0
2018-Jul-14 12:30N 46°10' W 123°55'0 0.0
2018-Jul-14 12:01N 46°10' W 123°55'0 0.0
2018-Jul-14 11:31N 46°10' W 123°55'0 0.0
2018-Jul-14 11:01N 46°10' W 123°55'0 0.0
2018-Jul-14 10:31N 46°10' W 123°55'0 0.0
2018-Jul-14 10:00N 46°10' W 123°55'0 0.0
2018-Jul-14 09:14N 46°10' W 123°55'0 0.0
2018-Jul-14 09:01N 46°10' W 123°55'0 0.0
2018-Jul-14 08:31N 46°10' W 123°55'0 0.0
2018-Jul-14 08:00N 46°10' W 123°55'0 0.0
2018-Jul-14 07:31N 46°10' W 123°55'0 0.0
2018-Jul-14 06:59N 46°10' W 123°55'0 0.0
2018-Jul-14 06:30N 46°10' W 123°55'0 0.0
2018-Jul-14 06:00N 46°10' W 123°55'0 0.0
2018-Jul-14 05:30N 46°10' W 123°55'0 0.0
2018-Jul-14 05:01N 46°10' W 123°55'0 0.0
2018-Jul-14 04:30N 46°10' W 123°55'0 0.0
2018-Jul-14 04:01N 46°10' W 123°55'0 0.0
2018-Jul-14 03:27N 46°10' W 123°55'0 0.0
2018-Jul-14 03:00N 46°10' W 123°55'0 0.0
2018-Jul-14 02:31N 46°10' W 123°55'0 0.0
2018-Jul-14 02:00N 46°10' W 123°55'0 0.0
2018-Jul-14 01:31N 46°10' W 123°55'0 0.0
2018-Jul-14 01:01N 46°10' W 123°55'0 0.0
2018-Jul-14 00:30N 46°10' W 123°55'0 0.0
2018-Jul-13 23:50N 46°10' W 123°55'0 0.0
2018-Jul-13 23:30N 46°10' W 123°55'0 0.0
2018-Jul-13 23:00N 46°10' W 123°55'0 0.0
2018-Jul-13 22:31N 46°10' W 123°55'1 1.1
2018-Jul-13 22:01N 46°11' W 123°55'2 4.8
2018-Jul-13 21:31N 46°10' W 123°51'1 2.3
2018-Jul-13 21:00N 46°09' W 123°52'0 0.0
2018-Jul-13 20:16N 46°09' W 123°52'0 0.0
2018-Jul-13 20:00N 46°09' W 123°52'0 0.0
2018-Jul-13 19:30N 46°09' W 123°52'0 0.0
2018-Jul-13 19:01N 46°09' W 123°52'0 0.0
2018-Jul-13 18:31N 46°09' W 123°52'0 0.0
2018-Jul-13 18:00N 46°09' W 123°52'0 0.0
2018-Jul-13 17:31N 46°09' W 123°52'0 0.0
2018-Jul-13 17:01N 46°09' W 123°52'0 0.0
2018-Jul-13 16:31N 46°09' W 123°52'0 0.0
2018-Jul-13 16:00N 46°09' W 123°52'0 0.0
2018-Jul-13 15:31N 46°09' W 123°52'0 0.0
2018-Jul-13 15:01N 46°09' W 123°52'0 0.0
2018-Jul-13 14:00N 46°09' W 123°52'0 0.0
2018-Jul-13 13:31N 46°09' W 123°52'0 0.0
2018-Jul-13 13:00N 46°09' W 123°52'0 0.0
2018-Jul-13 12:30N 46°09' W 123°52'0 0.0
2018-Jul-13 12:00N 46°09' W 123°52'0 0.0
2018-Jul-13 11:31N 46°09' W 123°52'0 0.0
2018-Jul-13 11:00N 46°09' W 123°52'0 0.0
2018-Jul-13 10:31N 46°09' W 123°52'0 0.0
2018-Jul-13 10:01N 46°09' W 123°52'0 0.0
2018-Jul-13 09:30N 46°09' W 123°52'0 0.0
2018-Jul-13 09:01N 46°09' W 123°52'0 0.0
2018-Jul-13 08:31N 46°09' W 123°52'0 0.0
2018-Jul-13 08:00N 46°09' W 123°52'0 0.0
2018-Jul-13 07:31N 46°09' W 123°52'0 0.0
2018-Jul-13 06:59N 46°09' W 123°52'0 0.0
2018-Jul-13 06:30N 46°09' W 123°52'0 0.0
2018-Jul-13 06:00N 46°09' W 123°52'0 0.0
2018-Jul-13 05:31N 46°09' W 123°52'0 0.0
2018-Jul-13 05:01N 46°09' W 123°52'0 0.0
2018-Jul-13 04:30N 46°09' W 123°52'0 0.0
2018-Jul-13 04:00N 46°09' W 123°52'0 0.0
2018-Jul-13 03:31N 46°09' W 123°52'0 0.0
2018-Jul-13 03:00N 46°09' W 123°52'0 0.0
2018-Jul-13 02:30N 46°09' W 123°52'0 0.0
2018-Jul-13 02:00N 46°09' W 123°52'0 0.0
2018-Jul-13 01:30N 46°09' W 123°52'0 0.0
2018-Jul-13 01:01N 46°09' W 123°52'0 0.0
2018-Jul-13 00:31N 46°09' W 123°52'0 0.0
2018-Jul-13 00:00N 46°09' W 123°52'0 0.0
2018-Jul-12 23:30N 46°09' W 123°52'0 0.0
2018-Jul-12 23:00N 46°09' W 123°52'0 0.0
2018-Jul-12 22:31N 46°09' W 123°52'0 0.0
2018-Jul-12 22:01N 46°09' W 123°52'0 0.0
2018-Jul-12 21:31N 46°09' W 123°52'0 0.0
2018-Jul-12 21:00N 46°09' W 123°52'0 0.0
2018-Jul-12 20:30N 46°09' W 123°52'0 0.0
2018-Jul-12 19:38N 46°09' W 123°52'0 0.0
2018-Jul-12 19:31N 46°09' W 123°52'0 0.0
2018-Jul-12 19:00N 46°09' W 123°52'0 0.0
2018-Jul-12 18:31N 46°09' W 123°52'0 0.0
2018-Jul-12 18:01N 46°09' W 123°52'0 0.0
2018-Jul-12 17:22N 46°09' W 123°52'0 0.0
2018-Jul-12 17:01N 46°09' W 123°52'0 0.0
2018-Jul-12 16:31N 46°09' W 123°52'0 0.1
2018-Jul-12 16:00N 46°09' W 123°52'0 0.1
2018-Jul-12 15:30N 46°09' W 123°52'0 0.1
2018-Jul-12 15:01N 46°09' W 123°52'0 0.1
2018-Jul-12 14:31N 46°09' W 123°52'0 0.0
2018-Jul-12 14:01N 46°09' W 123°52'0 0.0
2018-Jul-12 13:31N 46°09' W 123°52'0 0.0
2018-Jul-12 13:00N 46°09' W 123°52'0 0.0
2018-Jul-12 12:18N 46°09' W 123°52'0 0.0
2018-Jul-12 12:00N 46°09' W 123°52'0 0.0
2018-Jul-12 11:30N 46°09' W 123°52'0 0.0
2018-Jul-12 10:35N 46°09' W 123°52'0 0.0
2018-Jul-12 10:30N 46°09' W 123°52'0 0.0
2018-Jul-12 09:48N 46°09' W 123°52'0 0.0
2018-Jul-12 09:30N 46°09' W 123°52'0 0.0
2018-Jul-12 08:54N 46°09' W 123°52'0 0.0
2018-Jul-12 08:31N 46°09' W 123°52'0 0.0
2018-Jul-12 07:58N 46°09' W 123°52'0 0.0
2018-Jul-12 07:30N 46°09' W 123°52'0 0.0
2018-Jul-12 06:59N 46°09' W 123°52'0 0.0
2018-Jul-12 06:31N 46°09' W 123°52'0 0.0
2018-Jul-12 06:01N 46°09' W 123°52'0 0.0
2018-Jul-12 05:30N 46°09' W 123°52'0 0.0
2018-Jul-12 05:00N 46°09' W 123°52'0 0.0
2018-Jul-12 04:24N 46°09' W 123°52'0 0.0
2018-Jul-12 04:00N 46°09' W 123°52'0 0.0
2018-Jul-12 03:30N 46°09' W 123°52'0 0.0
2018-Jul-12 02:48N 46°09' W 123°52'0 0.0
2018-Jul-12 02:30N 46°09' W 123°52'0 0.0
2018-Jul-12 02:00N 46°09' W 123°52'0 0.0
2018-Jul-12 01:30N 46°09' W 123°52'0 0.0
2018-Jul-12 01:00N 46°09' W 123°52'0 0.0
2018-Jul-12 00:30N 46°09' W 123°52'0 0.0
2018-Jul-12 00:00N 46°09' W 123°52'0 0.0
2018-Jul-11 23:30N 46°09' W 123°52'0 0.0
2018-Jul-11 23:01N 46°09' W 123°52'0 0.0
2018-Jul-11 22:31N 46°09' W 123°52'0 0.0
2018-Jul-11 22:01N 46°09' W 123°52'0 0.0
2018-Jul-11 21:30N 46°09' W 123°52'0 0.0
2018-Jul-11 21:00N 46°09' W 123°52'0 0.0
2018-Jul-11 20:30N 46°09' W 123°52'0 0.0
2018-Jul-11 20:00N 46°09' W 123°52'0 0.0
2018-Jul-11 19:30N 46°09' W 123°52'0 0.0
2018-Jul-11 19:00N 46°09' W 123°52'0 0.0
2018-Jul-11 18:30N 46°09' W 123°52'0 0.0
2018-Jul-11 18:00N 46°09' W 123°52'0 0.0
2018-Jul-11 17:30N 46°09' W 123°52'0 0.0
2018-Jul-11 17:00N 46°09' W 123°52'0 0.0
2018-Jul-11 16:30N 46°09' W 123°52'0 0.0
2018-Jul-11 16:00N 46°09' W 123°52'0 0.0
2018-Jul-11 15:30N 46°09' W 123°52'0 0.0
2018-Jul-11 15:00N 46°09' W 123°52'0 0.0
2018-Jul-11 14:30N 46°09' W 123°52'0 0.0
2018-Jul-11 14:00N 46°09' W 123°52'0 0.0
2018-Jul-11 13:30N 46°09' W 123°52'0 0.0
2018-Jul-11 13:00N 46°09' W 123°52'0 0.0
2018-Jul-11 12:30N 46°09' W 123°52'0 0.0
2018-Jul-11 12:00N 46°09' W 123°52'0 0.0
2018-Jul-11 11:30N 46°09' W 123°52'0 0.0
2018-Jul-11 11:01N 46°09' W 123°52'0 0.0
2018-Jul-11 10:19N 46°09' W 123°52'0 0.0
2018-Jul-11 10:00N 46°09' W 123°52'0 0.0
2018-Jul-11 09:30N 46°09' W 123°52'0 0.0
2018-Jul-11 09:00N 46°09' W 123°52'0 0.0
2018-Jul-11 08:31N 46°09' W 123°52'0 0.1
2018-Jul-11 08:00N 46°09' W 123°52'0 0.1
2018-Jul-11 07:30N 46°09' W 123°52'0 0.0
2018-Jul-11 06:59N 46°09' W 123°52'0 0.0
2018-Jul-11 06:30N 46°09' W 123°52'0 0.0
2018-Jul-11 06:00N 46°09' W 123°52'0 0.0
2018-Jul-11 05:30N 46°09' W 123°52'0 0.0
2018-Jul-11 05:01N 46°09' W 123°52'0 0.0
2018-Jul-11 04:30N 46°09' W 123°52'0 0.0
2018-Jul-11 04:01N 46°09' W 123°52'0 0.0
2018-Jul-11 03:30N 46°09' W 123°52'0 0.0
2018-Jul-11 03:00N 46°09' W 123°52'0 0.0
2018-Jul-11 02:31N 46°09' W 123°52'0 0.0
2018-Jul-11 02:01N 46°09' W 123°52'0 0.0
2018-Jul-11 01:30N 46°09' W 123°52'0 0.0
2018-Jul-11 01:00N 46°09' W 123°52'0 0.0
2018-Jul-11 00:30N 46°09' W 123°52'0 0.0
2018-Jul-11 00:00N 46°09' W 123°52'0 0.0
2018-Jul-10 23:31N 46°09' W 123°52'0 0.0
2018-Jul-10 23:00N 46°09' W 123°52'0 0.0
2018-Jul-10 22:30N 46°09' W 123°52'0 0.0
2018-Jul-10 22:00N 46°09' W 123°52'0 0.0
2018-Jul-10 21:30N 46°09' W 123°52'0 0.0
2018-Jul-10 21:00N 46°09' W 123°52'0 0.0
2018-Jul-10 20:30N 46°09' W 123°52'0 0.0
2018-Jul-10 20:00N 46°09' W 123°52'0 0.0
2018-Jul-10 19:31N 46°09' W 123°52'0 0.0
2018-Jul-10 19:00N 46°09' W 123°52'0 0.0
2018-Jul-10 18:31N 46°09' W 123°52'0 0.0
2018-Jul-10 18:00N 46°09' W 123°52'0 0.0
2018-Jul-10 17:31N 46°09' W 123°52'0 0.0
2018-Jul-10 17:01N 46°09' W 123°52'0 0.0
2018-Jul-10 16:12N 46°09' W 123°52'0 0.0
2018-Jul-10 16:01N 46°09' W 123°52'0 0.1
2018-Jul-10 15:30N 46°09' W 123°52'0 0.1
2018-Jul-10 15:00N 46°09' W 123°52'0 0.0
2018-Jul-10 14:30N 46°09' W 123°52'0 0.0
2018-Jul-10 14:00N 46°09' W 123°52'0 0.0
2018-Jul-10 13:30N 46°09' W 123°52'0 0.0
2018-Jul-10 13:00N 46°09' W 123°52'0 0.0
2018-Jul-10 12:31N 46°09' W 123°52'0 0.0
2018-Jul-10 12:01N 46°09' W 123°52'0 0.0
2018-Jul-10 11:31N 46°09' W 123°52'0 0.0
2018-Jul-10 11:01N 46°09' W 123°52'0 0.0
2018-Jul-10 10:31N 46°09' W 123°52'0 0.0
2018-Jul-10 10:01N 46°09' W 123°52'0 0.0
2018-Jul-10 09:26N 46°09' W 123°52'0 0.0
2018-Jul-10 09:00N 46°09' W 123°52'0 0.0
2018-Jul-10 08:30N 46°09' W 123°52'0 0.0
2018-Jul-10 07:41N 46°09' W 123°52'0 0.0
2018-Jul-10 07:31N 46°09' W 123°52'0 0.0
2018-Jul-10 06:59N 46°09' W 123°52'0 0.0
2018-Jul-10 06:30N 46°09' W 123°52'0 0.0
2018-Jul-10 06:01N 46°09' W 123°52'0 0.0
2018-Jul-10 05:31N 46°09' W 123°52'0 0.0
2018-Jul-10 05:01N 46°09' W 123°52'0 0.0
2018-Jul-10 04:15N 46°09' W 123°52'0 0.0
2018-Jul-10 04:00N 46°09' W 123°52'0 0.0
2018-Jul-10 03:30N 46°09' W 123°52'0 0.0
2018-Jul-10 03:00N 46°09' W 123°52'0 0.0
2018-Jul-10 02:30N 46°09' W 123°52'0 0.0
2018-Jul-10 02:00N 46°09' W 123°52'0 0.0
2018-Jul-10 01:31N 46°09' W 123°52'0 0.0
2018-Jul-10 01:00N 46°09' W 123°52'0 0.0
2018-Jul-10 00:30N 46°09' W 123°52'0 0.0
2018-Jul-10 00:00N 46°09' W 123°52'0 0.0
2018-Jul-09 23:30N 46°09' W 123°52'0 0.0
2018-Jul-09 23:01N 46°09' W 123°52'0 0.0
2018-Jul-09 22:30N 46°09' W 123°52'0 0.0
2018-Jul-09 22:00N 46°09' W 123°52'0 0.0
2018-Jul-09 21:08N 46°09' W 123°52'0 0.0
2018-Jul-09 21:00N 46°09' W 123°52'0 0.0
2018-Jul-09 20:30N 46°09' W 123°52'0 0.0
2018-Jul-09 20:00N 46°09' W 123°52'0 0.0
2018-Jul-09 19:30N 46°09' W 123°52'0 0.0
2018-Jul-09 19:00N 46°09' W 123°52'0 0.0
2018-Jul-09 18:31N 46°09' W 123°52'0 0.0
2018-Jul-09 18:01N 46°09' W 123°52'0 0.0
2018-Jul-09 17:30N 46°09' W 123°52'0 0.0
2018-Jul-09 17:00N 46°09' W 123°52'0 0.0
2018-Jul-09 16:30N 46°09' W 123°52'0 0.0
2018-Jul-09 16:00N 46°09' W 123°52'0 0.0
2018-Jul-09 15:30N 46°09' W 123°52'0 0.0
2018-Jul-09 15:00N 46°09' W 123°52'0 0.0
2018-Jul-09 14:30N 46°09' W 123°52'0 0.0
2018-Jul-09 14:00N 46°09' W 123°52'0 0.0
2018-Jul-09 13:30N 46°09' W 123°52'0 0.0
2018-Jul-09 13:00N 46°09' W 123°52'0 0.0
2018-Jul-09 12:30N 46°09' W 123°52'0 0.0
2018-Jul-09 12:00N 46°09' W 123°52'0 0.0
2018-Jul-09 11:31N 46°09' W 123°52'0 0.0
2018-Jul-09 11:00N 46°09' W 123°52'0 0.0
2018-Jul-09 10:30N 46°09' W 123°52'0 0.0
2018-Jul-09 10:00N 46°09' W 123°52'0 0.0
2018-Jul-09 09:30N 46°09' W 123°52'0 0.0
2018-Jul-09 09:00N 46°09' W 123°52'0 0.0
2018-Jul-09 08:31N 46°09' W 123°52'0 0.0
2018-Jul-09 08:00N 46°09' W 123°52'0 0.0
2018-Jul-09 07:30N 46°09' W 123°52'0 0.0
2018-Jul-09 06:59N 46°09' W 123°52'0 0.0
2018-Jul-09 06:30N 46°09' W 123°52'0 0.0
2018-Jul-09 06:00N 46°09' W 123°52'0 0.0
2018-Jul-09 05:25N 46°09' W 123°52'0 0.0
2018-Jul-09 05:00N 46°09' W 123°52'0 0.0
2018-Jul-09 04:20N 46°09' W 123°52'0 0.0
2018-Jul-09 04:00N 46°09' W 123°52'0 0.0
2018-Jul-09 03:31N 46°09' W 123°52'0 0.0
2018-Jul-09 02:54N 46°09' W 123°52'0 0.0
2018-Jul-09 02:30N 46°09' W 123°52'0 0.0
2018-Jul-09 02:00N 46°09' W 123°52'0 0.0
2018-Jul-09 01:30N 46°09' W 123°52'0 0.0
2018-Jul-09 01:00N 46°09' W 123°52'0 0.0
2018-Jul-09 00:30N 46°09' W 123°52'  

Dump ship's entire track history